createdAt,value
2019-02-16T00:00:10.003Z,100071.30
2019-02-16T00:03:23.497Z,100062.57
2019-02-16T00:06:36.962Z,100066.27
2019-02-16T00:09:50.441Z,100058.02
2019-02-16T00:13:04.012Z,100061.38
2019-02-16T00:16:17.824Z,100056.17
2019-02-16T00:19:31.329Z,100059.27
2019-02-16T00:22:44.920Z,100058.70
2019-02-16T00:25:58.903Z,100060.31
2019-02-16T00:29:12.379Z,100059.90
2019-02-16T00:32:25.861Z,100057.37
2019-02-16T00:35:39.325Z,100059.00
2019-02-16T00:38:54.254Z,100057.63
2019-02-16T00:42:07.896Z,100057.75
2019-02-16T00:45:21.388Z,100055.30
2019-02-16T00:48:34.848Z,100056.08
2019-02-16T00:51:48.597Z,100049.63
2019-02-16T00:55:02.226Z,100053.95
2019-02-16T00:58:15.696Z,100055.77
2019-02-16T01:01:29.181Z,100048.27
2019-02-16T01:04:42.666Z,100052.02
2019-02-16T01:07:56.555Z,100054.72
2019-02-16T01:11:10.035Z,100054.41
2019-02-16T01:14:23.512Z,100050.27
2019-02-16T01:17:36.998Z,100052.91
2019-02-16T01:20:50.493Z,100055.70
2019-02-16T01:24:04.192Z,100047.23
2019-02-16T01:27:17.689Z,100060.73
2019-02-16T01:30:31.184Z,100059.06
2019-02-16T01:33:45.618Z,100059.73
2019-02-16T01:36:59.343Z,100045.40
2019-02-16T01:40:12.841Z,100056.19
2019-02-16T01:43:26.355Z,100043.03
2019-02-16T01:46:39.843Z,100043.14
2019-02-16T01:49:53.319Z,100041.39
2019-02-16T01:53:07.139Z,100033.77
2019-02-16T01:56:20.625Z,100032.16
2019-02-16T01:59:34.123Z,100036.16
2019-02-16T02:02:47.714Z,100029.73
2019-02-16T02:06:01.299Z,100034.55
2019-02-16T02:09:15.107Z,100032.09
2019-02-16T02:12:28.587Z,100032.34
2019-02-16T02:15:42.332Z,100027.73
2019-02-16T02:18:55.827Z,100029.57
2019-02-16T02:22:09.325Z,100027.59
2019-02-16T02:25:22.800Z,100033.48
2019-02-16T02:28:36.680Z,100027.69
2019-02-16T02:31:50.167Z,100028.66
2019-02-16T02:35:04.177Z,100021.52
2019-02-16T02:38:17.665Z,100015.90
2019-02-16T02:41:31.766Z,100015.64
2019-02-16T02:44:45.566Z,100013.00
2019-02-16T02:47:59.383Z,100015.36
2019-02-16T02:51:13.509Z,100011.45
2019-02-16T02:54:27.109Z,100009.50
2019-02-16T02:57:40.587Z,100015.44
2019-02-16T03:00:54.355Z,100017.50
2019-02-16T03:04:07.847Z,100017.83
2019-02-16T03:07:21.840Z,100015.44
2019-02-16T03:10:35.309Z,100013.63
2019-02-16T03:13:49.079Z,100006.86
2019-02-16T03:17:02.821Z,100020.24
2019-02-16T03:20:16.610Z,100024.55
2019-02-16T03:23:30.517Z,100032.35
2019-02-16T03:27:20.673Z,100029.16
2019-02-16T03:31:03.100Z,100028.32
2019-02-16T03:34:20.680Z,100030.97
2019-02-16T03:38:07.640Z,100036.50
2019-02-16T03:41:21.121Z,100025.76
2019-02-16T03:44:34.900Z,100016.82
2019-02-16T03:47:48.503Z,100011.08
2019-02-16T03:51:01.985Z,100005.36
2019-02-16T03:54:15.842Z,100007.23
2019-02-16T03:57:29.443Z,100018.88
2019-02-16T04:00:42.920Z,100024.98
2019-02-16T04:03:56.413Z,100019.73
2019-02-16T04:07:09.897Z,100014.08
2019-02-16T04:10:23.374Z,100019.48
2019-02-16T04:13:36.856Z,100019.86
2019-02-16T04:16:50.348Z,100028.30
2019-02-16T04:20:04.931Z,100026.91
2019-02-16T04:23:18.649Z,100016.67
2019-02-16T04:26:32.356Z,100019.72
2019-02-16T04:29:45.836Z,100019.59
2019-02-16T04:32:59.306Z,100025.91
2019-02-16T04:36:12.784Z,100016.72
2019-02-16T04:39:26.260Z,100018.41
2019-02-16T04:42:39.851Z,100007.98
2019-02-16T04:45:53.335Z,100017.02
2019-02-16T04:49:06.825Z,100006.95
2019-02-16T04:52:20.296Z,100008.63
2019-02-16T04:55:33.827Z,100005.11
2019-02-16T04:58:47.406Z,100001.46
2019-02-16T05:02:01.187Z,99999.58
2019-02-16T05:05:14.683Z,100002.12
2019-02-16T05:08:28.163Z,100007.28
2019-02-16T05:11:41.759Z,100007.08
2019-02-16T05:14:55.235Z,100013.45
2019-02-16T05:18:08.712Z,100004.52
2019-02-16T05:21:22.202Z,100010.44
2019-02-16T05:24:35.681Z,100019.91
2019-02-16T05:27:49.167Z,100014.83
2019-02-16T05:31:02.759Z,100017.75
2019-02-16T05:34:16.336Z,100020.51
2019-02-16T05:37:30.592Z,100010.80
2019-02-16T05:40:44.176Z,100010.26
2019-02-16T05:43:57.981Z,100003.50
2019-02-16T05:47:11.563Z,100006.44
2019-02-16T05:50:25.042Z,100003.27
2019-02-16T05:53:38.535Z,100003.39
2019-02-16T05:56:52.024Z,100002.00
2019-02-16T06:00:07.085Z,100006.42
2019-02-16T06:03:20.568Z,100002.06
2019-02-16T06:06:34.057Z,100003.91
2019-02-16T06:09:47.633Z,100004.39
2019-02-16T06:13:01.122Z,100010.61
2019-02-16T06:16:14.594Z,100006.72
2019-02-16T06:19:28.080Z,100002.95
2019-02-16T06:22:41.831Z,100000.78
2019-02-16T06:25:55.296Z,100003.96
2019-02-16T06:29:08.780Z,100009.90
2019-02-16T06:32:22.268Z,100016.77
2019-02-16T06:36:04.445Z,100020.19
2019-02-16T06:39:18.235Z,100020.48
2019-02-16T06:42:31.731Z,100018.55
2019-02-16T06:45:45.191Z,100025.03
2019-02-16T06:48:59.131Z,100027.19
2019-02-16T06:52:12.704Z,100025.22
2019-02-16T06:55:33.842Z,100030.69
2019-02-16T06:58:47.592Z,100031.15
2019-02-16T07:02:01.170Z,100038.94
2019-02-16T07:05:14.663Z,100033.47
2019-02-16T07:08:28.144Z,100046.48
2019-02-16T07:11:41.618Z,100049.66
2019-02-16T07:14:55.118Z,100054.09
2019-02-16T07:18:22.188Z,100056.73
2019-02-16T07:21:35.663Z,100057.87
2019-02-16T07:24:49.162Z,100056.38
2019-02-16T07:28:02.887Z,100057.36
2019-02-16T07:31:16.381Z,100058.47
2019-02-16T07:34:29.948Z,100065.11
2019-02-16T07:37:43.521Z,100061.30
2019-02-16T07:40:57.022Z,100067.81
2019-02-16T07:44:22.084Z,100064.36
2019-02-16T07:47:55.238Z,100066.51
2019-02-16T07:51:15.067Z,100068.75
2019-02-16T07:54:37.747Z,100069.70
2019-02-16T07:58:13.437Z,100063.84
2019-02-16T08:01:39.394Z,100062.81
2019-02-16T08:05:01.774Z,100060.59
2019-02-16T08:08:21.590Z,100062.99
2019-02-16T08:11:41.806Z,100057.41
2019-02-16T08:15:01.239Z,100053.95
2019-02-16T08:18:43.499Z,100048.72
2019-02-16T08:22:15.520Z,100050.89
2019-02-16T08:25:51.804Z,100044.69
2019-02-16T08:29:14.603Z,100045.45
2019-02-16T08:32:47.028Z,100050.80
2019-02-16T08:36:09.878Z,100048.22
2019-02-16T08:39:45.723Z,100044.84
2019-02-16T08:43:16.598Z,100035.35
2019-02-16T08:46:48.607Z,100030.34
2019-02-16T08:50:17.177Z,100021.92
2019-02-16T08:53:55.933Z,100014.70
2019-02-16T08:57:24.219Z,100011.18
2019-02-16T09:00:56.265Z,100009.23
2019-02-16T09:04:24.894Z,100014.31
2019-02-16T09:07:49.878Z,100005.98
2019-02-16T09:11:15.767Z,99999.09
2019-02-16T09:14:48.892Z,100002.39
2019-02-16T09:18:10.524Z,100004.11
2019-02-16T09:21:56.231Z,99998.64
2019-02-16T09:25:17.335Z,99996.20
2019-02-16T09:28:48.946Z,99986.34
2019-02-16T09:32:30.731Z,99984.37
2019-02-16T09:35:55.698Z,99987.25
2019-02-16T09:39:31.542Z,99983.92
2019-02-16T09:42:50.663Z,99982.92
2019-02-16T09:46:23.799Z,99983.31
2019-02-16T09:49:57.047Z,99983.55
2019-02-16T09:53:23.390Z,99977.70
2019-02-16T09:56:56.533Z,99972.70
2019-02-16T10:00:32.470Z,99974.56
2019-02-16T10:04:08.607Z,99960.17
2019-02-16T10:07:41.760Z,99962.87
2019-02-16T10:11:13.890Z,99969.20
2019-02-16T10:14:34.367Z,99970.14
2019-02-16T10:18:06.991Z,99974.59
2019-02-16T10:21:39.111Z,99973.96
2019-02-16T10:25:05.860Z,99964.09
2019-02-16T10:28:37.471Z,99957.56
2019-02-16T10:32:08.584Z,99955.41
2019-02-16T10:35:40.231Z,99957.73
2019-02-16T10:39:13.068Z,99950.90
2019-02-16T10:42:50.409Z,99956.98
2019-02-16T10:46:26.384Z,99946.31
2019-02-16T10:49:58.608Z,99942.06
2019-02-16T10:53:29.604Z,99931.12
2019-02-16T10:57:08.349Z,99920.48
2019-02-16T11:00:40.108Z,99916.86
2019-02-16T11:04:03.127Z,99917.33
2019-02-16T11:07:36.265Z,99922.47
2019-02-16T11:11:01.589Z,99912.95
2019-02-16T11:14:40.995Z,99904.25
2019-02-16T11:18:21.601Z,99896.36
2019-02-16T11:22:04.559Z,99897.71
2019-02-16T11:25:31.514Z,99889.81
2019-02-16T11:29:17.332Z,99890.69
2019-02-16T11:32:56.257Z,99880.45
2019-02-16T11:36:21.846Z,99875.34
2019-02-16T11:39:51.511Z,99878.79
2019-02-16T11:43:41.131Z,99878.37
2019-02-16T11:47:16.781Z,99878.23
2019-02-16T11:50:45.554Z,99870.53
2019-02-16T11:54:18.979Z,99860.27
2019-02-16T11:57:47.755Z,99857.08
2019-02-16T12:01:29.830Z,99862.23
2019-02-16T12:04:53.346Z,99857.19
2019-02-16T12:08:11.633Z,99852.78
2019-02-16T12:11:42.366Z,99848.59
2019-02-16T12:15:10.305Z,99840.30
2019-02-16T12:18:35.398Z,99826.02
2019-02-16T12:22:07.307Z,99825.36
2019-02-16T12:25:46.486Z,99821.80
2019-02-16T12:29:19.620Z,99821.84
2019-02-16T12:33:07.927Z,99819.70
2019-02-16T12:36:39.767Z,99809.25
2019-02-16T12:40:03.956Z,99798.80
2019-02-16T12:43:35.577Z,99799.30
2019-02-16T12:47:09.162Z,99797.83
2019-02-16T12:50:34.023Z,99795.31
2019-02-16T12:54:02.072Z,99791.30
2019-02-16T12:57:25.625Z,99787.61
2019-02-16T13:00:55.898Z,99792.82
2019-02-16T13:04:27.515Z,99787.26
2019-02-16T13:08:00.994Z,99783.70
2019-02-16T13:11:28.857Z,99781.73
2019-02-16T13:14:58.167Z,99775.98
2019-02-16T13:18:19.203Z,99774.50
2019-02-16T13:21:52.351Z,99772.58
2019-02-16T13:25:24.094Z,99770.44
2019-02-16T13:29:11.408Z,99767.98
2019-02-16T13:32:43.419Z,99766.04
2019-02-16T13:36:04.879Z,99765.68
2019-02-16T13:39:38.034Z,99767.95
2019-02-16T13:42:59.137Z,99759.47
2019-02-16T13:46:32.392Z,99769.39
2019-02-16T13:49:52.564Z,99764.52
2019-02-16T13:53:28.717Z,99767.02
2019-02-16T13:56:58.077Z,99759.52
2019-02-16T14:00:43.676Z,99763.09
2019-02-16T14:04:24.419Z,99757.22
2019-02-16T14:07:49.708Z,99764.32
2019-02-16T14:11:21.511Z,99761.64
2019-02-16T14:15:03.383Z,99755.67
2019-02-16T14:18:17.203Z,99750.15
2019-02-16T14:21:30.790Z,99748.45
2019-02-16T14:24:47.363Z,99754.47
2019-02-16T14:28:01.190Z,99745.60
2019-02-16T14:31:17.854Z,99743.16
2019-02-16T14:34:31.436Z,99739.51
2019-02-16T14:37:50.553Z,99746.56
2019-02-16T14:41:04.805Z,99747.20
2019-02-16T14:44:18.613Z,99744.34
2019-02-16T14:47:32.112Z,99750.09
2019-02-16T14:50:45.751Z,99747.27
2019-02-16T14:54:00.485Z,99749.42
2019-02-16T14:57:13.981Z,99752.89
2019-02-16T15:00:27.808Z,99755.05
2019-02-16T15:03:41.281Z,99753.55
2019-02-16T15:06:55.043Z,99757.67
2019-02-16T15:10:09.105Z,99755.21
2019-02-16T15:13:22.897Z,99754.27
2019-02-16T15:16:36.385Z,99756.50
2019-02-16T15:19:50.040Z,99758.83
2019-02-16T15:23:04.133Z,99760.77
2019-02-16T15:26:17.830Z,99757.70
2019-02-16T15:29:31.300Z,99761.45
2019-02-16T15:32:46.307Z,99762.83
2019-02-16T15:36:00.232Z,99762.89
2019-02-16T15:39:13.671Z,99768.36
2019-02-16T15:42:27.140Z,99764.52
2019-02-16T15:45:41.159Z,99764.48
2019-02-16T15:48:54.720Z,99765.66
2019-02-16T15:52:08.698Z,99765.92
2019-02-16T15:55:22.868Z,99767.28
2019-02-16T15:58:36.751Z,99762.28
2019-02-16T16:01:50.763Z,99761.93
2019-02-16T16:05:05.172Z,99754.98
2019-02-16T16:08:39.186Z,99757.83
2019-02-16T16:12:13.054Z,99757.70
2019-02-16T16:15:42.318Z,99761.10
2019-02-16T16:19:05.365Z,99757.17
2019-02-16T16:22:27.694Z,99764.18
2019-02-16T16:25:52.031Z,99767.03
2019-02-16T16:29:37.399Z,99761.27
2019-02-16T16:33:03.318Z,99770.09
2019-02-16T16:36:33.954Z,99774.96
2019-02-16T16:39:55.195Z,99781.18
2019-02-16T16:43:20.852Z,99782.71
2019-02-16T16:46:52.494Z,99780.94
2019-02-16T16:50:18.763Z,99784.95
2019-02-16T16:53:49.021Z,99792.66
2019-02-16T16:57:22.560Z,99785.94
2019-02-16T17:01:05.115Z,99791.45
2019-02-16T17:04:24.252Z,99798.78
2019-02-16T17:07:47.281Z,99802.59
2019-02-16T17:11:18.856Z,99807.99
2019-02-16T17:14:38.848Z,99812.06
2019-02-16T17:18:11.997Z,99818.61
2019-02-16T17:21:51.395Z,99820.83
2019-02-16T17:25:24.765Z,99817.27
2019-02-16T17:28:52.325Z,99818.94
2019-02-16T17:32:13.808Z,99816.41
2019-02-16T17:35:46.970Z,99824.52
2019-02-16T17:39:18.547Z,99829.60
2019-02-16T17:42:51.682Z,99821.65
2019-02-16T17:46:24.406Z,99828.59
2019-02-16T17:49:47.231Z,99826.16
2019-02-16T17:53:10.068Z,99833.02
2019-02-16T17:56:46.826Z,99842.13
2019-02-16T18:00:03.995Z,99837.73
2019-02-16T18:03:36.425Z,99843.08
2019-02-16T18:07:01.800Z,99831.70
2019-02-16T18:10:28.240Z,99847.02
2019-02-16T18:14:01.794Z,99840.02
2019-02-16T18:17:34.123Z,99841.12
2019-02-16T18:21:05.669Z,99845.85
2019-02-16T18:24:35.979Z,99846.78
2019-02-16T18:28:16.967Z,99837.52
2019-02-16T18:31:55.929Z,99839.34
2019-02-16T18:35:27.503Z,99836.09
2019-02-16T18:39:06.263Z,99835.89
2019-02-16T18:42:38.319Z,99836.59
2019-02-16T18:46:26.450Z,99828.98
2019-02-16T18:50:01.115Z,99827.88
2019-02-16T18:53:25.816Z,99833.50
2019-02-16T18:57:06.365Z,99828.59
2019-02-16T19:00:39.733Z,99826.55
2019-02-16T19:04:24.533Z,99823.08
2019-02-16T19:08:00.511Z,99824.15
2019-02-16T19:11:25.725Z,99822.52
2019-02-16T19:14:57.540Z,99823.76
2019-02-16T19:18:18.799Z,99822.64
2019-02-16T19:21:54.706Z,99824.58
2019-02-16T19:25:15.107Z,99816.25
2019-02-16T19:28:51.094Z,99812.80
2019-02-16T19:32:24.244Z,99813.53
2019-02-16T19:36:12.864Z,99813.14
2019-02-16T19:39:34.071Z,99817.11
2019-02-16T19:42:56.276Z,99815.81
2019-02-16T19:46:23.017Z,99820.11
2019-02-16T19:49:57.294Z,99811.50
2019-02-16T19:53:36.313Z,99813.95
2019-02-16T19:57:09.489Z,99813.91
2019-02-16T20:00:41.372Z,99812.97
2019-02-16T20:04:14.512Z,99812.80
2019-02-16T20:07:56.584Z,99813.82
2019-02-16T20:11:35.358Z,99812.02
2019-02-16T20:15:08.481Z,99810.50
2019-02-16T20:18:31.465Z,99811.88
2019-02-16T20:21:59.005Z,99810.98
2019-02-16T20:25:22.215Z,99815.30
2019-02-16T20:29:13.874Z,99814.03
2019-02-16T20:32:52.951Z,99813.41
2019-02-16T20:36:25.056Z,99814.62
2019-02-16T20:40:04.069Z,99808.73
2019-02-16T20:43:26.440Z,99807.48
2019-02-16T20:46:50.149Z,99812.85
2019-02-16T20:50:26.493Z,99814.42
2019-02-16T20:53:49.029Z,99825.83
2019-02-16T20:57:15.463Z,99831.54
2019-02-16T21:00:47.506Z,99836.18
2019-02-16T21:04:12.061Z,99831.85
2019-02-16T21:07:37.302Z,99830.28
2019-02-16T21:11:20.089Z,99832.96
2019-02-16T21:15:08.084Z,99824.34
2019-02-16T21:18:36.649Z,99836.60
2019-02-16T21:22:16.155Z,99840.85
2019-02-16T21:25:52.783Z,99839.20
2019-02-16T21:29:33.004Z,99837.94
2019-02-16T21:33:09.285Z,99831.20
2019-02-16T21:36:30.190Z,99825.99
2019-02-16T21:39:54.782Z,99820.80
2019-02-16T21:43:37.316Z,99832.61
2019-02-16T21:47:19.412Z,99826.80
2019-02-16T21:51:04.814Z,99822.48
2019-02-16T21:54:24.617Z,99820.09
2019-02-16T21:58:08.155Z,99821.81
2019-02-16T22:01:28.872Z,99819.30
2019-02-16T22:05:17.319Z,99815.80
2019-02-16T22:08:50.475Z,99812.35
2019-02-16T22:12:33.070Z,99810.75
2019-02-16T22:15:46.463Z,99817.64
2019-02-16T22:18:59.924Z,99808.50
2019-02-16T22:22:13.791Z,99806.58
2019-02-16T22:25:27.370Z,99808.28
2019-02-16T22:28:40.832Z,99807.00
2019-02-16T22:31:54.307Z,99812.50
2019-02-16T22:35:08.714Z,99811.57
2019-02-16T22:38:22.184Z,99809.22
2019-02-16T22:41:35.792Z,99809.64
2019-02-16T22:44:49.256Z,99807.06
2019-02-16T22:48:03.465Z,99808.17
2019-02-16T22:51:16.970Z,99805.08
2019-02-16T22:54:30.414Z,99799.84
2019-02-16T22:57:44.001Z,99802.06
2019-02-16T23:00:57.570Z,99805.61
2019-02-16T23:04:11.036Z,99803.92
2019-02-16T23:07:24.624Z,99805.55
2019-02-16T23:10:38.655Z,99811.61
2019-02-16T23:13:52.324Z,99800.76
2019-02-16T23:17:06.260Z,99806.34
2019-02-16T23:20:19.738Z,99796.58
2019-02-16T23:23:33.311Z,99800.09
2019-02-16T23:26:46.894Z,99795.97
2019-02-16T23:30:00.465Z,99791.16
2019-02-16T23:33:14.163Z,99795.52
2019-02-16T23:36:27.646Z,99786.61
2019-02-16T23:39:41.117Z,99793.03
2019-02-16T23:42:54.584Z,99786.67
2019-02-16T23:46:08.052Z,99778.14
2019-02-16T23:49:21.965Z,99783.73
2019-02-16T23:52:35.641Z,99775.07
2019-02-16T23:55:49.100Z,99770.07
2019-02-16T23:59:02.677Z,99774.10
